sensor_id;sensor_type;location;lat;lon;timestamp;pressure;altitude;pressure_sealevel;temperature;humidity
69593;BME280;56796;50.122;14.468;2023-04-29T00:07:39;974.96;;;11.12;96.19
69593;BME280;56796;50.122;14.468;2023-04-29T00:27:05;975.09;;;11.22;96.68
69593;BME280;56796;50.122;14.468;2023-04-29T00:46:32;975.13;;;11.28;96.55
69593;BME280;56796;50.122;14.468;2023-04-29T01:06:03;975;;;11.33;96.53
69593;BME280;56796;50.122;14.468;2023-04-29T01:25:26;974.74;;;11.02;97.19
69593;BME280;56796;50.122;14.468;2023-04-29T01:44:53;974.91;;;10.82;98.47
69593;BME280;56796;50.122;14.468;2023-04-29T02:04:19;974.74;;;10.71;99.35
69593;BME280;56796;50.122;14.468;2023-04-29T02:23:48;974.71;;;10.63;100
69593;BME280;56796;50.122;14.468;2023-04-29T02:43:07;974.99;;;10.73;100
69593;BME280;56796;50.122;14.468;2023-04-29T03:02:34;974.84;;;10.88;100
69593;BME280;56796;50.122;14.468;2023-04-29T03:22:01;974.83;;;10.83;100
69593;BME280;56796;50.122;14.468;2023-04-29T03:41:28;974.77;;;10.96;100
69593;BME280;56796;50.122;14.468;2023-04-29T04:00:55;974.72;;;11.1;100
69593;BME280;56796;50.122;14.468;2023-04-29T04:20:22;974.76;;;11.04;100
69593;BME280;56796;50.122;14.468;2023-04-29T04:39:48;974.86;;;11.07;100
69593;BME280;56796;50.122;14.468;2023-04-29T04:59:16;974.85;;;11.17;100
69593;BME280;56796;50.122;14.468;2023-04-29T05:18:42;974.77;;;11.12;100
69593;BME280;56796;50.122;14.468;2023-04-29T05:38:10;974.92;;;11.7;100
69593;BME280;56796;50.122;14.468;2023-04-29T05:57:39;974.99;;;12.24;100
69593;BME280;56796;50.122;14.468;2023-04-29T06:17:07;975;;;13.05;100
69593;BME280;56796;50.122;14.468;2023-04-29T06:36:37;975;;;13.89;100
69593;BME280;56796;50.122;14.468;2023-04-29T06:56:10;974.84;;;15.46;94.16
69593;BME280;56796;50.122;14.468;2023-04-29T07:15:40;974.89;;;16.54;89.22
69593;BME280;56796;50.122;14.468;2023-04-29T07:35:12;974.92;;;16.54;84.79
69593;BME280;56796;50.122;14.468;2023-04-29T07:54:34;975.07;;;15.04;90.47
69593;BME280;56796;50.122;14.468;2023-04-29T08:14:03;974.96;;;18.5;78.27
69593;BME280;56796;50.122;14.468;2023-04-29T08:33:28;975.16;;;16.12;80.9
69593;BME280;56796;50.122;14.468;2023-04-29T08:52:54;975.37;;;16.59;80.37
69593;BME280;56796;50.122;14.468;2023-04-29T09:12:17;975.42;;;16.77;89.29
69593;BME280;56796;50.122;14.468;2023-04-29T09:31:43;975.5;;;16.62;86.72
69593;BME280;56796;50.122;14.468;2023-04-29T09:51:09;975.61;;;17.78;76.38
69593;BME280;56796;50.122;14.468;2023-04-29T10:10:45;975.61;;;19.65;67.88
69593;BME280;56796;50.122;14.468;2023-04-29T10:30:11;975.82;;;18.21;69.89
69593;BME280;56796;50.122;14.468;2023-04-29T10:49:32;975.91;;;16.54;78.35
69593;BME280;56796;50.122;14.468;2023-04-29T11:08:59;975.91;;;18.9;67.73
69593;BME280;56796;50.122;14.468;2023-04-29T11:28:22;976.08;;;18.04;67.45
69593;BME280;56796;50.122;14.468;2023-04-29T11:47:49;976.11;;;17.94;67.66
69593;BME280;56796;50.122;14.468;2023-04-29T12:07:15;976.27;;;17.46;70.23
69593;BME280;56796;50.122;14.468;2023-04-29T12:26:41;976.16;;;18.74;65.28
69593;BME280;56796;50.122;14.468;2023-04-29T12:46:09;976.21;;;17.95;67.65
69593;BME280;56796;50.122;14.468;2023-04-29T13:05:26;976.21;;;17.45;67.29
69593;BME280;56796;50.122;14.468;2023-04-29T13:24:54;976.45;;;17.42;66.42
69593;BME280;56796;50.122;14.468;2023-04-29T13:44:18;976.62;;;16.11;73.49
69593;BME280;56796;50.122;14.468;2023-04-29T14:03:39;976.71;;;15.93;73
69593;BME280;56796;50.122;14.468;2023-04-29T14:23:05;976.89;;;16.45;69.32
69593;BME280;56796;50.122;14.468;2023-04-29T14:42:34;977.01;;;16.76;67.06
69593;BME280;56796;50.122;14.468;2023-04-29T15:01:58;977.16;;;16.16;66.09
69593;BME280;56796;50.122;14.468;2023-04-29T15:21:23;977.37;;;16.09;67.7
69593;BME280;56796;50.122;14.468;2023-04-29T15:40:50;977.54;;;15.85;65.58
69593;BME280;56796;50.122;14.468;2023-04-29T16:00:15;977.81;;;15.63;66.91
69593;BME280;56796;50.122;14.468;2023-04-29T16:19:40;978.18;;;14.84;69.28
69593;BME280;56796;50.122;14.468;2023-04-29T16:39:05;978.35;;;14.59;68.52
69593;BME280;56796;50.122;14.468;2023-04-29T16:58:29;978.84;;;13.92;71.54
69593;BME280;56796;50.122;14.468;2023-04-29T17:17:51;979.26;;;12.69;77.89
69593;BME280;56796;50.122;14.468;2023-04-29T17:37:14;979.59;;;12.06;80.15
69593;BME280;56796;50.122;14.468;2023-04-29T17:56:41;979.89;;;11.48;81.79
69593;BME280;56796;50.122;14.468;2023-04-29T18:16:00;980.07;;;11.04;83.52
69593;BME280;56796;50.122;14.468;2023-04-29T18:35:20;980.23;;;10.83;84.18
69593;BME280;56796;50.122;14.468;2023-04-29T18:54:37;980.55;;;11.05;83.9
69593;BME280;56796;50.122;14.468;2023-04-29T19:14:03;980.61;;;11.21;83.75
69593;BME280;56796;50.122;14.468;2023-04-29T19:33:32;980.9;;;11.31;83.94
69593;BME280;56796;50.122;14.468;2023-04-29T19:52:57;981.01;;;11.23;84.62
69593;BME280;56796;50.122;14.468;2023-04-29T20:12:24;980.95;;;11.2;84.94
69593;BME280;56796;50.122;14.468;2023-04-29T20:31:50;981.04;;;11.1;85.44
69593;BME280;56796;50.122;14.468;2023-04-29T20:51:17;981.1;;;11;85.89
69593;BME280;56796;50.122;14.468;2023-04-29T21:10:43;981.26;;;10.86;86.36
69593;BME280;56796;50.122;14.468;2023-04-29T21:30:12;981.49;;;10.68;86.91
69593;BME280;56796;50.122;14.468;2023-04-29T21:49:30;981.56;;;10.48;87.66
69593;BME280;56796;50.122;14.468;2023-04-29T22:08:56;981.54;;;10.38;88.35
69593;BME280;56796;50.122;14.468;2023-04-29T22:28:22;981.66;;;10.33;88.8
69593;BME280;56796;50.122;14.468;2023-04-29T22:47:48;981.69;;;10.35;88.81
69593;BME280;56796;50.122;14.468;2023-04-29T23:07:15;981.78;;;10.27;89.26
69593;BME280;56796;50.122;14.468;2023-04-29T23:26:44;981.78;;;10.26;89.81
69593;BME280;56796;50.122;14.468;2023-04-29T23:46:03;981.86;;;10.27;90.14
